createdAt,value
2019-06-07T00:01:31.507Z,54.20
2019-06-07T00:06:47.538Z,54.30
2019-06-07T00:12:03.465Z,54.20
2019-06-07T00:17:20.288Z,54.30
2019-06-07T00:22:36.561Z,54.30
2019-06-07T00:27:52.458Z,54.40
2019-06-07T00:33:11.009Z,54.40
2019-06-07T00:38:25.569Z,54.50
2019-06-07T00:43:41.647Z,54.60
2019-06-07T00:48:57.401Z,54.60
2019-06-07T00:54:14.954Z,54.60
2019-06-07T00:59:30.231Z,55.40
2019-06-07T01:04:45.864Z,54.60
2019-06-07T01:10:01.555Z,54.70
2019-06-07T01:15:22.755Z,54.80
2019-06-07T01:20:36.798Z,54.80
2019-06-07T01:25:52.306Z,54.90
2019-06-07T01:31:08.007Z,55.00
2019-06-07T01:36:27.601Z,55.10
2019-06-07T01:41:40.908Z,55.00
2019-06-07T01:46:56.603Z,55.10
2019-06-07T01:52:12.592Z,55.10
2019-06-07T01:57:44.765Z,55.30
2019-06-07T02:02:45.469Z,55.30
2019-06-07T02:08:01.042Z,55.30
2019-06-07T02:13:17.200Z,55.30
2019-06-07T02:18:34.926Z,55.30
2019-06-07T02:23:51.635Z,55.30
2019-06-07T02:29:07.045Z,55.30
2019-06-07T02:34:24.900Z,55.40
2019-06-07T02:39:41.201Z,55.50
2019-06-07T02:44:57.239Z,55.50
2019-06-07T02:50:13.747Z,55.50
2019-06-07T02:55:36.549Z,55.70
2019-06-07T03:01:09.070Z,55.60
2019-06-07T03:06:07.629Z,55.80
2019-06-07T03:11:28.140Z,55.90
2019-06-07T03:16:49.211Z,55.90
2019-06-07T03:22:06.491Z,56.00
2019-06-07T03:27:35.094Z,56.20
2019-06-07T03:32:47.431Z,56.20
2019-06-07T03:37:58.651Z,56.40
2019-06-07T03:43:14.059Z,56.30
2019-06-07T03:48:30.709Z,56.50
2019-06-07T03:53:47.159Z,56.70
2019-06-07T03:59:02.580Z,56.70
2019-06-07T04:04:18.522Z,56.90
2019-06-07T04:09:37.523Z,57.00
2019-06-07T04:14:52.006Z,57.30
2019-06-07T04:20:08.406Z,57.30
2019-06-07T04:25:24.356Z,57.30
2019-06-07T04:30:44.962Z,57.50
2019-06-07T04:36:01.850Z,57.50
2019-06-07T04:41:21.013Z,57.80
2019-06-07T04:46:40.724Z,57.80
2019-06-07T04:51:56.576Z,58.00
2019-06-07T04:57:12.068Z,58.20
2019-06-07T05:02:27.661Z,58.30
2019-06-07T05:07:46.317Z,58.40
2019-06-07T05:13:00.567Z,58.60
2019-06-07T05:18:16.166Z,58.70
2019-06-07T05:28:48.996Z,59.10
2019-06-07T05:34:05.019Z,59.40
2019-06-07T05:39:20.764Z,60.20
2019-06-07T05:44:36.638Z,59.80
2019-06-07T05:49:53.679Z,59.80
2019-06-07T05:55:09.941Z,60.10
2019-06-07T06:00:25.789Z,60.50
2019-06-07T06:05:45.756Z,60.80
2019-06-07T06:10:58.707Z,61.10
2019-06-07T06:16:15.111Z,61.40
2019-06-07T06:21:30.885Z,61.70
2019-06-07T06:26:54.855Z,61.90
2019-06-07T06:32:41.049Z,62.20
2019-06-07T06:37:25.854Z,62.10
2019-06-07T06:42:42.228Z,61.60
2019-06-07T06:48:01.954Z,61.40
2019-06-07T06:53:17.646Z,61.20
2019-06-07T06:59:18.721Z,61.20
2019-06-07T07:04:10.529Z,61.20
2019-06-07T07:09:14.438Z,61.20
2019-06-07T07:14:30.313Z,61.50
2019-06-07T07:19:49.944Z,61.30
2019-06-07T07:25:05.143Z,61.50
2019-06-07T07:30:38.487Z,61.80
2019-06-07T07:36:15.793Z,61.80
2019-06-07T07:41:15.676Z,61.90
2019-06-07T07:46:30.268Z,62.10
2019-06-07T07:51:49.124Z,62.10
2019-06-07T07:57:04.875Z,62.20
2019-06-07T08:02:20.554Z,62.30
2019-06-07T08:07:37.489Z,62.40
2019-06-07T08:13:18.182Z,62.60
2019-06-07T08:18:10.897Z,62.60
2019-06-07T08:23:26.910Z,62.70
2019-06-07T08:28:42.492Z,62.80
2019-06-07T08:34:00.517Z,62.80
2019-06-07T08:39:15.827Z,62.90
2019-06-07T08:44:31.683Z,62.90
2019-06-07T08:49:47.738Z,63.10
2019-06-07T08:55:05.205Z,63.20
2019-06-07T09:05:41.442Z,63.70
2019-06-07T09:10:59.466Z,63.90
2019-06-07T09:16:15.266Z,64.20
2019-06-07T09:21:30.699Z,64.30
2019-06-07T09:26:46.324Z,64.60
2019-06-07T09:32:09.677Z,65.20
2019-06-07T09:38:03.573Z,65.40
2019-06-07T09:42:38.975Z,65.70
2019-06-07T09:47:54.875Z,65.60
2019-06-07T09:53:21.575Z,65.80
2019-06-07T09:58:51.209Z,65.80
2019-06-07T10:03:45.442Z,66.00
2019-06-07T10:10:04.691Z,66.60
2019-06-07T10:14:20.474Z,66.40
2019-06-07T10:19:36.045Z,66.40
2019-06-07T10:24:51.595Z,66.80
2019-06-07T10:30:08.645Z,66.60
2019-06-07T10:35:24.316Z,66.90
2019-06-07T10:40:39.894Z,67.10
2019-06-07T10:45:55.333Z,67.50
2019-06-07T10:51:14.450Z,67.40
2019-06-07T10:56:28.875Z,67.30
2019-06-07T11:01:44.637Z,67.40
2019-06-07T11:07:00.332Z,67.60
2019-06-07T11:12:16.147Z,67.70
2019-06-07T11:17:31.986Z,67.90
2019-06-07T11:22:47.375Z,67.90
2019-06-07T11:28:04.228Z,68.10
2019-06-07T11:33:19.795Z,68.20
2019-06-07T11:38:35.433Z,68.10
2019-06-07T11:43:51.091Z,68.00
2019-06-07T11:49:08.175Z,67.80
2019-06-07T11:54:24.144Z,67.90
2019-06-07T11:59:39.665Z,67.70
2019-06-07T12:04:55.766Z,67.80
2019-06-07T12:10:12.692Z,67.80
2019-06-07T12:15:28.767Z,67.80
2019-06-07T12:20:44.627Z,67.80
2019-06-07T12:26:00.899Z,67.60
2019-06-07T12:31:17.137Z,67.40
2019-06-07T12:36:32.979Z,67.30
2019-06-07T12:41:48.688Z,67.20
2019-06-07T12:47:04.554Z,67.10
2019-06-07T12:52:22.855Z,66.80
2019-06-07T12:57:39.479Z,66.50
2019-06-07T13:02:55.418Z,66.30
2019-06-07T13:08:11.304Z,66.00
2019-06-07T13:13:28.098Z,65.80
2019-06-07T13:18:44.521Z,65.30
2019-06-07T13:24:01.159Z,64.80
2019-06-07T13:29:18.639Z,64.20
2019-06-07T13:34:34.265Z,63.70
2019-06-07T13:39:49.739Z,63.10
2019-06-07T13:45:05.229Z,62.50
2019-06-07T13:50:21.678Z,62.00
2019-06-07T13:55:37.391Z,61.60
2019-06-07T14:00:53.065Z,61.20
2019-06-07T14:06:08.875Z,60.60
2019-06-07T14:11:25.300Z,60.10
2019-06-07T14:16:41.484Z,59.80
2019-06-07T14:21:56.972Z,59.30
2019-06-07T14:27:12.656Z,59.60
2019-06-07T14:32:28.767Z,58.90
2019-06-07T14:37:44.810Z,57.90
2019-06-07T14:43:01.446Z,57.10
2019-06-07T14:48:17.109Z,56.90
2019-06-07T14:53:33.103Z,56.60
2019-06-07T14:58:49.160Z,56.50
2019-06-07T15:04:05.291Z,56.10
2019-06-07T15:09:21.001Z,56.00
2019-06-07T15:14:37.644Z,55.70
2019-06-07T15:19:53.619Z,55.00
2019-06-07T15:25:10.071Z,54.70
2019-06-07T15:30:27.338Z,54.60
2019-06-07T15:35:43.341Z,54.50
2019-06-07T15:40:59.314Z,54.40
2019-06-07T15:46:14.987Z,54.30
2019-06-07T15:51:30.715Z,54.30
2019-06-07T15:56:46.367Z,54.60
2019-06-07T16:02:02.017Z,53.90
2019-06-07T16:07:17.952Z,53.60
2019-06-07T16:12:34.549Z,53.40
2019-06-07T16:17:50.362Z,53.10
2019-06-07T16:23:06.710Z,52.90
2019-06-07T16:28:22.523Z,52.80
2019-06-07T16:33:38.854Z,52.40
2019-06-07T16:38:57.175Z,52.50
2019-06-07T16:44:12.938Z,52.40
2019-06-07T16:49:28.584Z,52.40
2019-06-07T16:54:54.471Z,52.20
2019-06-07T17:00:11.338Z,52.40
2019-06-07T17:05:27.008Z,52.40
2019-06-07T17:10:42.748Z,52.40
2019-06-07T17:15:58.514Z,52.40
2019-06-07T17:21:13.892Z,52.30
2019-06-07T17:26:30.041Z,52.40
2019-06-07T17:31:46.469Z,52.40
2019-06-07T17:37:02.067Z,52.40
2019-06-07T17:42:17.688Z,51.40
2019-06-07T17:47:32.931Z,52.00
2019-06-07T17:52:50.479Z,52.40
2019-06-07T17:58:06.136Z,52.40
2019-06-07T18:03:22.265Z,52.30
2019-06-07T18:08:38.295Z,52.20
2019-06-07T18:14:08.502Z,51.80
2019-06-07T18:19:11.154Z,51.70
2019-06-07T18:24:26.945Z,51.40
2019-06-07T18:29:42.652Z,50.90
2019-06-07T18:35:00.283Z,50.10
2019-06-07T18:40:16.024Z,49.70
2019-06-07T18:45:32.178Z,49.30
2019-06-07T18:50:48.612Z,48.70
2019-06-07T18:56:05.144Z,47.80
2019-06-07T19:01:21.522Z,48.20
2019-06-07T19:06:37.294Z,47.90
2019-06-07T19:11:53.139Z,47.70
2019-06-07T19:17:08.971Z,47.30
2019-06-07T19:22:24.979Z,47.10
2019-06-07T19:27:40.792Z,47.10
2019-06-07T19:32:57.331Z,46.50
2019-06-07T19:38:16.800Z,45.90
2019-06-07T19:43:31.571Z,45.80
2019-06-07T19:48:48.049Z,45.50
2019-06-07T19:54:04.080Z,45.30
2019-06-07T19:59:19.903Z,45.00
2019-06-07T20:04:36.280Z,44.80
2019-06-07T20:09:52.159Z,44.80
2019-06-07T20:15:27.227Z,44.70
2019-06-07T20:20:26.092Z,44.90
2019-06-07T20:25:41.932Z,44.90
2019-06-07T20:30:59.613Z,44.80
2019-06-07T20:36:15.602Z,44.70
2019-06-07T20:41:31.574Z,44.70
2019-06-07T20:46:47.464Z,44.80
2019-06-07T20:52:04.818Z,44.70
2019-06-07T20:57:20.943Z,44.50
2019-06-07T21:02:36.799Z,44.50
2019-06-07T21:07:52.764Z,44.50
2019-06-07T21:13:08.323Z,44.70
2019-06-07T21:18:24.285Z,44.50
2019-06-07T21:23:39.863Z,44.40
2019-06-07T21:28:55.834Z,44.40
2019-06-07T21:34:14.001Z,44.30
2019-06-07T21:39:29.024Z,44.20
2019-06-07T21:44:44.758Z,43.90
2019-06-07T21:50:00.564Z,44.40
2019-06-07T21:55:17.015Z,43.90
2019-06-07T22:01:22.698Z,43.80
2019-06-07T22:06:38.582Z,43.70
2019-06-07T22:11:54.563Z,44.00
2019-06-07T22:17:10.569Z,44.00
2019-06-07T22:22:26.237Z,44.10
2019-06-07T22:27:41.937Z,44.10
2019-06-07T22:32:59.309Z,44.00
2019-06-07T22:38:15.272Z,44.10
2019-06-07T22:43:30.883Z,44.10
2019-06-07T22:48:47.004Z,44.40
2019-06-07T22:54:03.706Z,44.40
2019-06-07T22:59:20.651Z,44.60
2019-06-07T23:04:36.422Z,44.80
2019-06-07T23:09:52.272Z,44.90
2019-06-07T23:15:09.363Z,45.20
2019-06-07T23:20:28.828Z,45.40
2019-06-07T23:25:44.387Z,45.60
2019-06-07T23:31:00.255Z,45.80
2019-06-07T23:36:17.243Z,46.10
2019-06-07T23:41:33.180Z,46.20
2019-06-07T23:46:49.117Z,46.30
2019-06-07T23:52:04.819Z,46.40
2019-06-07T23:57:21.021Z,46.60
